createdAt,value
2023-03-09T00:01:42.924Z,95149.41
2023-03-09T00:04:15.741Z,95143.50
2023-03-09T00:06:45.668Z,95154.19
2023-03-09T00:09:15.587Z,95156.59
2023-03-09T00:11:44.905Z,95151.03
2023-03-09T00:14:14.173Z,95154.72
2023-03-09T00:16:43.374Z,95144.34
2023-03-09T00:19:13.436Z,95140.53
2023-03-09T00:21:42.792Z,95142.16
2023-03-09T00:24:15.734Z,95148.44
2023-03-09T00:26:46.106Z,95129.81
2023-03-09T00:29:14.930Z,95136.41
2023-03-09T00:31:43.921Z,95127.63
2023-03-09T00:34:15.616Z,95133.88
2023-03-09T00:36:43.715Z,95130.19
2023-03-09T00:39:12.915Z,95139.28
2023-03-09T00:41:41.846Z,95117.59
2023-03-09T00:44:10.833Z,95111.38
2023-03-09T00:46:40.024Z,95118.56
2023-03-09T00:49:09.646Z,95106.59
2023-03-09T00:51:39.495Z,95096.81
2023-03-09T00:54:08.665Z,95095.94
2023-03-09T00:56:37.393Z,95094.63
2023-03-09T00:59:06.030Z,95083.44
2023-03-09T01:01:35.582Z,95087.66
2023-03-09T01:04:04.472Z,95067.38
2023-03-09T01:06:33.095Z,95057.91
2023-03-09T01:09:03.322Z,95048.69
2023-03-09T01:11:31.646Z,95046.22
2023-03-09T01:13:59.739Z,95032.78
2023-03-09T01:16:28.696Z,95027.66
2023-03-09T01:18:57.112Z,95020.63
2023-03-09T01:21:25.101Z,95013.50
2023-03-09T01:23:54.070Z,95006.63
2023-03-09T01:26:23.642Z,95017.91
2023-03-09T01:28:52.239Z,95013.88
2023-03-09T01:31:20.969Z,95009.59
2023-03-09T01:33:50.762Z,95008.25
2023-03-09T01:36:21.484Z,95012.50
2023-03-09T01:38:50.272Z,95002.63
2023-03-09T01:41:20.412Z,95005.34
2023-03-09T01:43:52.298Z,94993.59
2023-03-09T01:46:38.564Z,95008.91
2023-03-09T01:49:20.374Z,95001.50
2023-03-09T01:51:53.632Z,94995.09
2023-03-09T01:54:26.435Z,94993.41
2023-03-09T01:56:57.496Z,95000.22
2023-03-09T01:59:30.868Z,94993.56
2023-03-09T02:02:00.068Z,94997.50
2023-03-09T02:04:34.422Z,94986.94
2023-03-09T02:07:03.385Z,94982.69
2023-03-09T02:09:40.282Z,94978.34
2023-03-09T02:12:11.591Z,94984.78
2023-03-09T02:14:41.939Z,94980.75
2023-03-09T02:17:12.802Z,94982.16
2023-03-09T02:19:56.330Z,94981.81
2023-03-09T02:22:24.589Z,94974.06
2023-03-09T02:25:04.240Z,94970.16
2023-03-09T02:27:35.704Z,94973.00
2023-03-09T02:30:04.902Z,94958.09
2023-03-09T02:32:33.981Z,94941.94
2023-03-09T02:35:02.173Z,94955.06
2023-03-09T02:37:34.859Z,94960.97
2023-03-09T02:40:12.992Z,94952.25
2023-03-09T02:42:44.593Z,94965.66
2023-03-09T02:45:15.557Z,94967.25
2023-03-09T02:47:43.561Z,94961.69
2023-03-09T02:50:13.109Z,94986.09
2023-03-09T02:52:41.596Z,94975.38
2023-03-09T02:55:10.419Z,94971.81
2023-03-09T02:57:39.110Z,94982.28
2023-03-09T03:00:10.688Z,94988.88
2023-03-09T03:02:39.451Z,94988.41
2023-03-09T03:05:09.700Z,94996.25
2023-03-09T03:07:37.932Z,95000.53
2023-03-09T03:10:07.229Z,94991.69
2023-03-09T03:12:35.430Z,94989.19
2023-03-09T03:15:03.921Z,95012.22
2023-03-09T03:17:33.980Z,95017.06
2023-03-09T03:20:02.186Z,95021.56
2023-03-09T03:22:30.277Z,95014.91
2023-03-09T03:24:58.950Z,95016.50
2023-03-09T03:27:27.114Z,95006.75
2023-03-09T03:29:55.291Z,95023.69
2023-03-09T03:32:23.915Z,95014.22
2023-03-09T03:34:53.391Z,95039.03
2023-03-09T03:37:21.714Z,95040.81
2023-03-09T03:39:50.445Z,95033.34
2023-03-09T03:42:18.537Z,95042.09
2023-03-09T03:44:46.606Z,95037.69
2023-03-09T03:47:15.215Z,95049.50
2023-03-09T03:49:43.418Z,95045.22
2023-03-09T03:52:15.572Z,95043.94
2023-03-09T03:54:44.090Z,95042.31
2023-03-09T03:57:12.072Z,95045.88
2023-03-09T03:59:40.048Z,95054.25
2023-03-09T04:02:08.837Z,95044.25
2023-03-09T04:04:37.384Z,95060.16
2023-03-09T04:07:05.668Z,95060.94
2023-03-09T04:09:35.739Z,95068.69
2023-03-09T04:12:05.742Z,95064.22
2023-03-09T04:14:35.587Z,95047.34
2023-03-09T04:17:03.807Z,95067.84
2023-03-09T04:19:32.020Z,95065.22
2023-03-09T04:22:00.547Z,95069.69
2023-03-09T04:24:28.650Z,95072.00
2023-03-09T04:26:58.078Z,95068.84
2023-03-09T04:29:26.592Z,95082.56
2023-03-09T04:31:54.564Z,95067.34
2023-03-09T04:34:22.790Z,95075.13
2023-03-09T04:36:51.476Z,95081.00
2023-03-09T04:39:19.607Z,95081.00
2023-03-09T04:41:47.753Z,95084.59
2023-03-09T04:44:17.656Z,95077.94
2023-03-09T04:46:45.896Z,95085.28
2023-03-09T04:49:14.581Z,95081.09
2023-03-09T04:51:43.222Z,95090.94
2023-03-09T04:54:11.748Z,95090.19
2023-03-09T04:56:40.066Z,95108.09
2023-03-09T04:59:15.080Z,95110.09
2023-03-09T05:01:44.657Z,95093.78
2023-03-09T05:04:12.897Z,95119.28
2023-03-09T05:06:41.506Z,95118.34
2023-03-09T05:09:10.092Z,95122.97
2023-03-09T05:11:38.165Z,95139.19
2023-03-09T05:14:06.817Z,95140.03
2023-03-09T05:16:35.141Z,95158.13
2023-03-09T05:19:04.749Z,95165.03
2023-03-09T05:21:34.253Z,95161.78
2023-03-09T05:24:02.489Z,95171.19
2023-03-09T05:26:31.023Z,95159.13
2023-03-09T05:28:59.766Z,95177.94
2023-03-09T05:31:28.026Z,95182.13
2023-03-09T05:33:56.394Z,95189.00
2023-03-09T05:36:28.412Z,95191.47
2023-03-09T05:38:56.522Z,95183.38
2023-03-09T05:41:24.762Z,95197.13
2023-03-09T05:43:53.858Z,95181.34
2023-03-09T05:46:24.649Z,95219.59
2023-03-09T05:48:53.531Z,95214.75
2023-03-09T05:51:21.674Z,95214.44
2023-03-09T05:53:51.099Z,95219.41
2023-03-09T05:56:19.773Z,95239.44
2023-03-09T05:58:51.858Z,95243.63
2023-03-09T06:01:22.756Z,95244.56
2023-03-09T06:03:54.262Z,95259.63
2023-03-09T06:06:22.929Z,95259.91
2023-03-09T06:08:52.447Z,95279.22
2023-03-09T06:11:20.942Z,95280.78
2023-03-09T06:13:49.917Z,95292.75
2023-03-09T06:16:19.062Z,95314.00
2023-03-09T06:18:47.745Z,95309.81
2023-03-09T06:21:16.818Z,95316.97
2023-03-09T06:23:45.065Z,95322.91
2023-03-09T06:26:16.485Z,95341.91
2023-03-09T06:28:50.986Z,95318.72
2023-03-09T06:31:20.919Z,95339.28
2023-03-09T06:33:50.639Z,95357.28
2023-03-09T06:36:20.833Z,95364.34
2023-03-09T06:38:49.596Z,95363.13
2023-03-09T06:41:28.836Z,95374.72
2023-03-09T06:43:57.278Z,95379.59
2023-03-09T06:46:25.728Z,95393.59
2023-03-09T06:48:58.284Z,95404.81
2023-03-09T06:51:26.474Z,95412.50
2023-03-09T06:53:55.118Z,95425.59
2023-03-09T06:56:25.178Z,95429.44
2023-03-09T06:58:55.603Z,95430.22
2023-03-09T07:01:24.433Z,95442.88
2023-03-09T07:03:53.469Z,95435.25
2023-03-09T07:06:21.981Z,95429.25
2023-03-09T07:08:50.942Z,95452.88
2023-03-09T07:11:19.369Z,95451.47
2023-03-09T07:13:51.172Z,95460.31
2023-03-09T07:16:20.059Z,95476.22
2023-03-09T07:18:48.325Z,95466.03
2023-03-09T07:21:17.952Z,95484.16
2023-03-09T07:23:46.845Z,95492.44
2023-03-09T07:26:15.472Z,95490.09
2023-03-09T07:28:44.320Z,95490.78
2023-03-09T07:31:15.628Z,95502.75
2023-03-09T07:33:44.037Z,95501.13
2023-03-09T07:36:13.140Z,95503.22
2023-03-09T07:38:41.839Z,95513.28
2023-03-09T07:41:10.437Z,95526.56
2023-03-09T07:43:45.479Z,95536.13
2023-03-09T07:46:16.596Z,95550.41
2023-03-09T07:48:47.967Z,95533.84
2023-03-09T07:51:16.479Z,95539.47
2023-03-09T07:53:45.055Z,95534.78
2023-03-09T07:56:14.950Z,95552.06
2023-03-09T07:58:44.591Z,95552.19
2023-03-09T08:01:25.064Z,95555.69
2023-03-09T08:03:53.734Z,95554.53
2023-03-09T08:06:23.130Z,95561.59
2023-03-09T08:08:52.009Z,95578.06
2023-03-09T08:11:21.128Z,95578.28
2023-03-09T08:13:51.960Z,95581.34
2023-03-09T08:16:22.716Z,95590.78
2023-03-09T08:18:56.945Z,95587.50
2023-03-09T08:21:27.306Z,95587.16
2023-03-09T08:23:57.266Z,95598.41
2023-03-09T08:26:26.651Z,95614.38
2023-03-09T08:28:57.125Z,95617.91
2023-03-09T08:31:29.555Z,95616.88
2023-03-09T08:33:58.587Z,95620.03
2023-03-09T08:36:27.700Z,95645.31
2023-03-09T08:38:55.942Z,95633.47
2023-03-09T08:41:25.682Z,95618.78
2023-03-09T08:43:57.236Z,95640.81
2023-03-09T08:46:27.558Z,95652.50
2023-03-09T08:48:57.542Z,95657.03
2023-03-09T08:51:26.702Z,95651.28
2023-03-09T08:53:55.354Z,95654.97
2023-03-09T08:56:24.256Z,95666.41
2023-03-09T08:58:53.445Z,95678.63
2023-03-09T09:01:21.945Z,95687.63
2023-03-09T09:03:52.361Z,95657.84
2023-03-09T09:06:21.648Z,95686.78
2023-03-09T09:08:50.748Z,95700.84
2023-03-09T09:11:19.949Z,95693.69
2023-03-09T09:13:48.348Z,95678.34
2023-03-09T09:16:18.103Z,95699.19
2023-03-09T09:18:46.980Z,95706.50
2023-03-09T09:21:19.535Z,95708.56
2023-03-09T09:23:50.165Z,95713.06
2023-03-09T09:26:22.893Z,95699.63
2023-03-09T09:28:52.654Z,95708.28
2023-03-09T09:31:22.411Z,95714.25
2023-03-09T09:33:51.193Z,95710.09
2023-03-09T09:36:22.124Z,95719.63
2023-03-09T09:38:50.513Z,95735.97
2023-03-09T09:41:22.385Z,95711.50
2023-03-09T09:43:53.358Z,95728.19
2023-03-09T09:46:24.678Z,95750.41
2023-03-09T09:48:53.392Z,95734.06
2023-03-09T09:54:31.468Z,95739.13
2023-03-09T09:57:03.997Z,95747.47
2023-03-09T09:59:40.275Z,95753.50
2023-03-09T10:02:24.993Z,95753.50
2023-03-09T10:05:05.004Z,95759.16
2023-03-09T10:07:38.848Z,95766.09
2023-03-09T10:10:19.232Z,95754.69
2023-03-09T10:12:48.638Z,95749.53
2023-03-09T10:15:26.584Z,95765.44
2023-03-09T10:17:59.865Z,95761.88
2023-03-09T10:20:36.232Z,95775.00
2023-03-09T10:23:20.082Z,95784.50
2023-03-09T10:25:54.676Z,95765.47
2023-03-09T10:28:27.685Z,95780.50
2023-03-09T10:31:03.799Z,95785.00
2023-03-09T10:33:42.278Z,95785.19
2023-03-09T10:36:17.358Z,95779.06
2023-03-09T10:38:46.117Z,95784.50
2023-03-09T10:41:20.638Z,95787.63
2023-03-09T10:43:49.904Z,95777.31
2023-03-09T10:46:21.653Z,95787.78
2023-03-09T10:48:53.248Z,95800.88
2023-03-09T10:51:28.157Z,95795.91
2023-03-09T10:53:59.313Z,95816.72
2023-03-09T10:56:32.392Z,95797.47
2023-03-09T10:59:16.392Z,95818.34
2023-03-09T11:01:47.073Z,95801.31
2023-03-09T11:04:31.709Z,95807.63
2023-03-09T11:07:01.292Z,95824.59
2023-03-09T11:09:33.502Z,95823.63
2023-03-09T11:12:37.222Z,95813.22
2023-03-09T11:15:25.863Z,95814.00
2023-03-09T11:17:56.078Z,95806.81
2023-03-09T11:20:34.206Z,95824.31
2023-03-09T11:23:14.778Z,95828.59
2023-03-09T11:25:55.382Z,95809.44
2023-03-09T11:28:34.205Z,95835.75
2023-03-09T11:31:03.161Z,95834.69
2023-03-09T11:33:33.266Z,95838.06
2023-03-09T11:36:02.924Z,95833.59
2023-03-09T11:38:33.131Z,95836.19
2023-03-09T11:41:10.340Z,95838.34
2023-03-09T11:43:44.487Z,95838.94
2023-03-09T11:46:20.181Z,95842.47
2023-03-09T11:48:53.262Z,95845.19
2023-03-09T11:51:27.602Z,95844.47
2023-03-09T11:54:04.716Z,95842.22
2023-03-09T11:56:36.918Z,95851.53
2023-03-09T11:59:13.820Z,95860.28
2023-03-09T12:01:48.299Z,95847.19
2023-03-09T12:04:18.965Z,95865.28
2023-03-09T12:06:59.942Z,95853.22
2023-03-09T12:09:35.060Z,95856.22
2023-03-09T12:12:15.182Z,95851.09
2023-03-09T12:14:51.047Z,95850.78
2023-03-09T12:17:23.817Z,95867.94
2023-03-09T12:20:11.568Z,95861.47
2023-03-09T12:22:43.927Z,95857.78
2023-03-09T12:25:24.134Z,95856.00
2023-03-09T12:27:56.572Z,95872.38
2023-03-09T12:30:31.622Z,95845.53
2023-03-09T12:33:02.400Z,95863.72
2023-03-09T12:36:06.369Z,95865.13
2023-03-09T12:38:35.402Z,95846.38
2023-03-09T12:41:03.888Z,95863.97
2023-03-09T12:43:53.942Z,95880.34
2023-03-09T12:46:52.607Z,95867.31
2023-03-09T12:49:25.733Z,95859.97
2023-03-09T12:52:35.574Z,95874.03
2023-03-09T12:55:14.265Z,95874.31
2023-03-09T12:57:42.885Z,95875.47
2023-03-09T13:00:32.843Z,95876.72
2023-03-09T13:03:09.021Z,95878.88
2023-03-09T13:05:47.361Z,95880.69
2023-03-09T13:08:27.189Z,95876.63
2023-03-09T13:11:24.662Z,95880.28
2023-03-09T13:13:53.547Z,95872.78
2023-03-09T13:16:53.736Z,95879.25
2023-03-09T13:19:57.411Z,95883.22
2023-03-09T13:22:43.320Z,95884.97
2023-03-09T13:25:25.583Z,95890.50
2023-03-09T13:28:04.786Z,95887.28
2023-03-09T13:30:37.213Z,95882.56
2023-03-09T13:33:12.602Z,95892.66
2023-03-09T13:35:57.270Z,95884.88
2023-03-09T13:38:31.269Z,95905.50
2023-03-09T13:41:01.626Z,95904.00
2023-03-09T13:43:32.875Z,95911.94
2023-03-09T13:46:08.833Z,95921.69
2023-03-09T13:48:45.405Z,95912.25
2023-03-09T13:51:37.728Z,95914.13
2023-03-09T13:54:07.937Z,95898.53
2023-03-09T13:56:36.164Z,95902.00
2023-03-09T13:59:05.632Z,95915.69
2023-03-09T14:01:34.625Z,95924.78
2023-03-09T14:04:03.307Z,95911.13
2023-03-09T14:09:34.062Z,95914.47
2023-03-09T14:12:03.983Z,95917.06
2023-03-09T14:14:34.031Z,95897.13
2023-03-09T14:17:02.469Z,95908.09
2023-03-09T14:19:33.129Z,95907.53
2023-03-09T14:22:03.539Z,95917.50
2023-03-09T14:24:34.882Z,95916.19
2023-03-09T14:27:22.537Z,95917.97
2023-03-09T14:29:52.311Z,95913.56
2023-03-09T14:32:25.067Z,95901.78
2023-03-09T14:34:55.252Z,95916.06
2023-03-09T14:37:27.857Z,95908.72
2023-03-09T14:40:00.466Z,95908.75
2023-03-09T14:42:31.663Z,95916.97
2023-03-09T14:45:25.673Z,95912.38
2023-03-09T14:47:58.752Z,95914.69
2023-03-09T14:50:28.732Z,95901.66
2023-03-09T14:52:58.376Z,95924.56
2023-03-09T14:55:27.001Z,95918.84
2023-03-09T14:57:56.376Z,95922.78
2023-03-09T15:00:26.482Z,95915.63
2023-03-09T15:02:55.731Z,95903.88
2023-03-09T15:05:27.372Z,95906.59
2023-03-09T15:07:55.772Z,95910.69
2023-03-09T15:10:26.838Z,95902.66
2023-03-09T15:12:56.618Z,95926.09
2023-03-09T15:15:27.429Z,95913.38
2023-03-09T15:17:58.167Z,95913.44
2023-03-09T15:20:43.753Z,95904.69
2023-03-09T15:23:14.103Z,95907.53
2023-03-09T15:25:44.759Z,95888.41
2023-03-09T15:28:13.787Z,95898.03
2023-03-09T15:30:42.684Z,95899.38
2023-03-09T15:33:12.204Z,95899.38
2023-03-09T15:35:44.100Z,95895.44
2023-03-09T15:38:12.342Z,95889.22
2023-03-09T15:40:44.556Z,95878.19
2023-03-09T15:43:12.788Z,95884.28
2023-03-09T15:45:45.401Z,95879.97
2023-03-09T15:48:14.322Z,95884.34
2023-03-09T15:50:42.704Z,95885.41
2023-03-09T15:53:11.580Z,95892.63
2023-03-09T15:55:39.665Z,95910.47
2023-03-09T15:58:09.337Z,95883.50
2023-03-09T16:00:38.481Z,95912.31
2023-03-09T16:03:07.497Z,95905.22
2023-03-09T16:05:35.882Z,95885.34
2023-03-09T16:08:04.773Z,95888.75
2023-03-09T16:10:33.151Z,95909.69
2023-03-09T16:13:01.509Z,95911.50
2023-03-09T16:15:31.646Z,95910.38
2023-03-09T16:17:59.849Z,95923.84
2023-03-09T16:20:28.609Z,95922.03
2023-03-09T16:22:57.399Z,95927.78
2023-03-09T16:25:26.600Z,95927.63
2023-03-09T16:27:54.954Z,95921.31
2023-03-09T16:30:24.173Z,95928.25
2023-03-09T16:32:55.600Z,95923.94
2023-03-09T16:35:27.030Z,95930.75
2023-03-09T16:37:56.667Z,95923.84
2023-03-09T16:40:25.056Z,95923.75
2023-03-09T16:42:53.901Z,95905.50
2023-03-09T16:45:23.022Z,95898.72
2023-03-09T16:47:55.650Z,95911.81
2023-03-09T16:50:26.646Z,95923.31
2023-03-09T16:52:55.223Z,95917.19
2023-03-09T16:55:25.166Z,95920.16
2023-03-09T16:57:53.708Z,95931.06
2023-03-09T17:00:23.908Z,95890.91
2023-03-09T17:02:53.050Z,95917.34
2023-03-09T17:05:21.506Z,95913.16
2023-03-09T17:07:51.518Z,95919.66
2023-03-09T17:10:22.652Z,95915.38
2023-03-09T17:12:50.870Z,95912.63
2023-03-09T17:15:19.335Z,95915.66
2023-03-09T17:17:48.438Z,95919.34
2023-03-09T17:20:16.697Z,95920.78
2023-03-09T17:22:45.504Z,95918.22
2023-03-09T17:25:20.815Z,95910.66
2023-03-09T17:27:51.756Z,95916.22
2023-03-09T17:30:24.853Z,95913.94
2023-03-09T17:32:56.618Z,95908.44
2023-03-09T17:35:25.825Z,95910.84
2023-03-09T17:37:54.685Z,95913.88
2023-03-09T17:40:24.539Z,95928.63
2023-03-09T17:42:53.490Z,95924.41
2023-03-09T17:45:22.061Z,95916.09
2023-03-09T17:47:50.623Z,95929.25
2023-03-09T17:50:19.236Z,95924.97
2023-03-09T17:52:47.618Z,95927.59
2023-03-09T17:55:16.054Z,95924.75
2023-03-09T17:57:46.149Z,95926.72
2023-03-09T18:00:16.327Z,95930.41
2023-03-09T18:02:44.570Z,95924.09
2023-03-09T18:05:13.771Z,95916.44
2023-03-09T18:07:41.984Z,95929.97
2023-03-09T18:10:14.576Z,95933.00
2023-03-09T18:12:42.796Z,95927.16
2023-03-09T18:15:12.965Z,95926.81
2023-03-09T18:17:41.477Z,95929.72
2023-03-09T18:20:11.363Z,95930.94
2023-03-09T18:22:40.298Z,95933.88
2023-03-09T18:25:09.261Z,95939.72
2023-03-09T18:27:38.241Z,95948.66
2023-03-09T18:30:08.769Z,95951.09
2023-03-09T18:32:39.391Z,95936.06
2023-03-09T18:35:08.554Z,95935.22
2023-03-09T18:37:38.654Z,95935.78
2023-03-09T18:40:10.090Z,95920.78
2023-03-09T18:42:38.304Z,95924.31
2023-03-09T18:45:07.366Z,95922.75
2023-03-09T18:47:35.968Z,95920.25
2023-03-09T18:50:07.147Z,95910.91
2023-03-09T18:52:35.951Z,95921.63
2023-03-09T18:55:05.009Z,95905.25
2023-03-09T18:57:34.174Z,95917.56
2023-03-09T19:00:02.942Z,95885.78
2023-03-09T19:02:31.442Z,95920.28
2023-03-09T19:05:00.363Z,95914.19
2023-03-09T19:07:30.865Z,95912.84
2023-03-09T19:09:59.140Z,95903.94
2023-03-09T19:12:27.655Z,95912.19
2023-03-09T19:14:56.874Z,95898.53
2023-03-09T19:17:26.660Z,95902.25
2023-03-09T19:19:55.293Z,95893.91
2023-03-09T19:22:24.616Z,95905.97
2023-03-09T19:24:54.370Z,95898.97
2023-03-09T19:27:22.789Z,95890.66
2023-03-09T19:29:51.602Z,95894.03
2023-03-09T19:32:20.082Z,95898.88
2023-03-09T19:34:48.415Z,95894.03
2023-03-09T19:37:17.172Z,95902.03
2023-03-09T19:39:45.984Z,95884.25
2023-03-09T19:42:15.585Z,95896.53
2023-03-09T19:44:45.819Z,95885.66
2023-03-09T19:47:14.033Z,95879.13
2023-03-09T19:49:42.430Z,95877.66
2023-03-09T19:52:11.254Z,95874.72
2023-03-09T19:54:39.366Z,95873.69
2023-03-09T19:57:07.927Z,95866.06
2023-03-09T19:59:38.343Z,95864.81
2023-03-09T20:02:07.991Z,95867.06
2023-03-09T20:04:36.375Z,95860.88
2023-03-09T20:07:05.329Z,95850.66
2023-03-09T20:09:34.622Z,95856.50
2023-03-09T20:12:03.839Z,95846.91
2023-03-09T20:14:32.362Z,95839.91
2023-03-09T20:17:04.524Z,95855.47
2023-03-09T20:19:33.328Z,95850.41
2023-03-09T20:22:03.320Z,95842.19
2023-03-09T20:24:32.325Z,95838.25
2023-03-09T20:27:00.849Z,95835.41
2023-03-09T20:29:32.009Z,95835.88
2023-03-09T20:32:03.261Z,95832.13
2023-03-09T20:34:31.431Z,95825.25
2023-03-09T20:36:59.903Z,95827.72
2023-03-09T20:39:28.895Z,95823.59
2023-03-09T20:41:57.960Z,95816.91
2023-03-09T20:44:26.137Z,95818.19
2023-03-09T20:46:55.021Z,95799.22
2023-03-09T20:49:25.331Z,95822.88
2023-03-09T20:51:53.734Z,95817.38
2023-03-09T20:54:25.637Z,95822.56
2023-03-09T20:56:53.846Z,95825.69
2023-03-09T20:59:23.101Z,95811.75
2023-03-09T21:01:52.486Z,95815.34
2023-03-09T21:04:20.807Z,95812.41
2023-03-09T21:06:51.192Z,95808.56
2023-03-09T21:09:22.178Z,95813.47
2023-03-09T21:11:51.549Z,95806.97
2023-03-09T21:14:22.098Z,95798.41
2023-03-09T21:16:50.436Z,95808.50
2023-03-09T21:19:19.179Z,95802.97
2023-03-09T21:21:47.708Z,95802.06
2023-03-09T21:24:18.054Z,95804.41
2023-03-09T21:26:47.413Z,95790.47
2023-03-09T21:29:16.479Z,95787.75
2023-03-09T21:31:45.158Z,95783.69
2023-03-09T21:34:13.809Z,95781.84
2023-03-09T21:36:42.210Z,95759.91
2023-03-09T21:39:11.257Z,95750.41
2023-03-09T21:41:40.782Z,95766.06
2023-03-09T21:44:09.836Z,95745.97
2023-03-09T21:46:38.657Z,95745.53
2023-03-09T21:49:06.943Z,95731.50
2023-03-09T21:51:36.039Z,95729.88
2023-03-09T21:54:04.923Z,95724.00
2023-03-09T21:56:33.652Z,95722.44
2023-03-09T21:59:05.285Z,95714.66
2023-03-09T22:01:33.786Z,95710.06
2023-03-09T22:04:02.101Z,95687.56
2023-03-09T22:06:33.388Z,95690.34
2023-03-09T22:09:03.353Z,95705.09
2023-03-09T22:11:34.011Z,95702.25
2023-03-09T22:14:05.779Z,95704.06
2023-03-09T22:16:36.780Z,95709.31
2023-03-09T22:19:07.119Z,95707.19
2023-03-09T22:21:36.300Z,95698.66
2023-03-09T22:24:06.795Z,95685.97
2023-03-09T22:26:35.838Z,95694.41
2023-03-09T22:29:05.854Z,95697.22
2023-03-09T22:31:35.669Z,95680.25
2023-03-09T22:34:06.012Z,95679.88
2023-03-09T22:36:36.341Z,95683.59
2023-03-09T22:39:06.288Z,95675.72
2023-03-09T22:41:34.930Z,95671.81
2023-03-09T22:44:04.145Z,95666.50
2023-03-09T22:46:37.607Z,95665.25
2023-03-09T22:49:07.042Z,95656.94
2023-03-09T22:51:35.727Z,95656.94
2023-03-09T22:54:04.093Z,95648.72
2023-03-09T22:56:32.969Z,95644.00
2023-03-09T22:59:01.375Z,95645.25
2023-03-09T23:01:32.028Z,95635.34
2023-03-09T23:04:03.080Z,95634.44
2023-03-09T23:06:31.685Z,95627.09
2023-03-09T23:09:01.461Z,95626.06
2023-03-09T23:11:32.452Z,95610.44
2023-03-09T23:14:01.279Z,95610.13
2023-03-09T23:16:29.579Z,95604.59
2023-03-09T23:18:58.529Z,95599.88
2023-03-09T23:21:28.133Z,95590.75
2023-03-09T23:23:56.523Z,95595.81
2023-03-09T23:26:25.736Z,95594.69
2023-03-09T23:28:54.383Z,95592.56
2023-03-09T23:31:23.577Z,95595.44
2023-03-09T23:33:52.812Z,95584.84
2023-03-09T23:36:25.793Z,95583.16
2023-03-09T23:38:56.320Z,95597.56
2023-03-09T23:41:24.653Z,95585.69
2023-03-09T23:43:52.874Z,95584.47
2023-03-09T23:46:21.981Z,95578.69
2023-03-09T23:48:51.817Z,95583.38
2023-03-09T23:51:22.777Z,95593.16
2023-03-09T23:53:51.567Z,95581.59
2023-03-09T23:56:23.271Z,95587.44
2023-03-09T23:58:53.310Z,95577.25
